Main page
METAR-TAF:

METAR-TAF

Airports :

Ostafyevo International Airport

Moscow, Russia

latitude: 55-30-42N, longitude: 037-30-26E, elevation: 173 m

Current weather observation

The report was made 32 minutes ago, at 10:30 UTC
Wind 10 kt from the West
Temperature 1°C
Humidity 80%
Pressure 995 hPa
Visibility 10 km or more
Broken clouds at a height of 1700 ft

METAR: UUMO 221030Z 27005MPS 9999 BKN017 01/M02 Q0995 R26/090060 NOSIG RMK QFE731/0975

Time: 14:02 (11:02 UTC)

Forecast

The report was made 3 hours and 17 minutes ago, at 07:45 UTC
Forecast valid from 22 at 09 UTC to 22 at 18 UTC
Wind 16 kt from the West with gusts up to 25 kt
Visibility 10 km or more
Broken clouds at a height of 1500 ft
Temporary
from 22 at 09 UTC to 22 at 18 UTC
Visibility: 2000 m
Broken clouds at a height of 700 ft
Scattered clouds at a height of 1500 ft, Cumulonimbus.
snow showers

TAF: UUMO 220745Z 2209/2218 27008G13MPS 9999 BKN015 TEMPO 2209/2218 2000 SHSN BKN007 SCT015CB

Weather observations and forecasts of more than 4000 airports (METAR and TAF reports).

The available stations are represented by yellow and red dots on the map.

Hover mouse over dot to see the name of the station.

Then click to see weather observations and forecasts.

To change the map : click on the green buttons with a black cross to zoom in, on the green button with a dash to zoom out, or on the green arrows for adjacent maps.


METAR-TAF: